Time;durP1;ratioP1;P1;durP2;ratioP2;P2;SDS_P1;SDS_P2;PMS_P1;PMS_P2;Temp;Humidity;BMP_temperature;BMP_pressure;BME280_temperature;BME280_humidity;BME280_pressure;Samples;Min_cycle;Max_cycle;Signal;HPM_P1;HPM_P2
2023/02/04 00:01:27;;;;;;;0.93;0.90;;;;;;;;;;4966129;28;20222;-86
2023/02/04 00:03:53;;;;;;;2.43;0.90;;;;;;;;;;4953093;28;20228;-86
2023/02/04 00:06:18;;;;;;;2.90;0.90;;;;;;;;;;4942795;28;20229;-87
2023/02/04 00:08:44;;;;;;;2.07;0.93;;;;;;;;;;4959148;28;20241;-87
2023/02/04 00:11:09;;;;;;;1.30;1.10;;;;;;;;;;4917428;28;20229;-86
2023/02/04 00:13:40;;;;;;;4.53;1.03;;;;;;;;;;4958655;28;20231;-87
2023/02/04 00:16:11;;;;;;;0.97;0.70;;;;;;;;;;4930818;28;20219;-87
2023/02/04 00:18:39;;;;;;;1.63;0.83;;;;;;;;;;4932555;29;20222;-85
2023/02/04 00:21:04;;;;;;;1.03;0.83;;;;;;;;;;4930129;28;20215;-88
2023/02/04 00:23:32;;;;;;;1.20;0.87;;;;;;;;;;4946015;28;20254;-86
2023/02/04 00:26:00;;;;;;;0.70;0.70;;;;;;;;;;4929738;29;20906;-87
2023/02/04 00:28:25;;;;;;;1.97;0.87;;;;;;;;;;4951167;28;20670;-86
2023/02/04 00:30:55;;;;;;;0.93;0.80;;;;;;;;;;4968429;28;20327;-86
2023/02/04 00:33:20;;;;;;;0.60;0.60;;;;;;;;;;4904405;28;20305;-87
2023/02/04 00:35:46;;;;;;;0.97;0.77;;;;;;;;;;4941141;29;20642;-88
2023/02/04 00:38:12;;;;;;;0.70;0.67;;;;;;;;;;4901232;28;20223;-87
2023/02/04 00:40:39;;;;;;;1.63;0.90;;;;;;;;;;4934533;28;20356;-86
2023/02/04 00:43:09;;;;;;;1.23;0.60;;;;;;;;;;4926525;28;20227;-87
2023/02/04 00:45:36;;;;;;;2.27;1.60;;;;;;;;;;4933373;29;20254;-87
2023/02/04 00:48:05;;;;;;;1.70;1.30;;;;;;;;;;4947014;28;20285;-88
2023/02/04 00:50:33;;;;;;;1.90;1.33;;;;;;;;;;4960272;28;20352;-88
2023/02/04 00:53:00;;;;;;;0.80;0.80;;;;;;;;;;4939773;29;20231;-87
2023/02/04 00:55:26;;;;;;;0.90;0.60;;;;;;;;;;4963371;28;20230;-88
2023/02/04 00:57:54;;;;;;;1.03;0.77;;;;;;;;;;4963217;28;20243;-87
2023/02/04 01:00:22;;;;;;;2.17;1.10;;;;;;;;;;4935432;28;20231;-88
2023/02/04 01:02:50;;;;;;;2.27;0.90;;;;;;;;;;4982033;28;20254;-87
2023/02/04 01:05:18;;;;;;;2.87;0.83;;;;;;;;;;4957458;28;20249;-88
2023/02/04 01:07:45;;;;;;;1.07;0.70;;;;;;;;;;4931342;29;20224;-86
2023/02/04 01:10:11;;;;;;;1.50;1.07;;;;;;;;;;4921600;28;20230;-87
2023/02/04 01:12:37;;;;;;;1.60;0.97;;;;;;;;;;4952693;28;20237;-87
2023/02/04 01:15:06;;;;;;;0.90;0.90;;;;;;;;;;4953355;28;20318;-87
2023/02/04 01:17:34;;;;;;;1.23;0.73;;;;;;;;;;4959291;28;20258;-87
2023/02/04 01:20:00;;;;;;;1.53;0.90;;;;;;;;;;4926543;29;20684;-87
2023/02/04 01:22:26;;;;;;;0.97;0.90;;;;;;;;;;4903975;28;20255;-88
2023/02/04 01:24:56;;;;;;;1.03;0.80;;;;;;;;;;4926757;28;20225;-87
2023/02/04 01:27:41;;;;;;;0.70;0.70;;;;;;;;;;4915462;28;20234;-85
2023/02/04 01:30:09;;;;;;;0.57;0.57;;;;;;;;;;4908506;28;20227;-87
2023/02/04 01:32:35;;;;;;;0.87;0.67;;;;;;;;;;4955276;28;20795;-87
2023/02/04 01:35:00;;;;;;;1.80;1.23;;;;;;;;;;4941095;29;20227;-86
2023/02/04 01:37:29;;;;;;;1.27;0.67;;;;;;;;;;4918222;29;20330;-87
2023/02/04 01:39:54;;;;;;;0.80;0.70;;;;;;;;;;4955127;28;20233;-87
2023/02/04 01:42:23;;;;;;;1.23;0.90;;;;;;;;;;4927026;28;20224;-85
2023/02/04 01:44:48;;;;;;;1.40;0.90;;;;;;;;;;4927867;28;20266;-87
2023/02/04 01:47:14;;;;;;;0.70;0.70;;;;;;;;;;4926012;28;20226;-87
2023/02/04 01:49:40;;;;;;;0.80;0.80;;;;;;;;;;4972125;28;20223;-87
2023/02/04 01:52:06;;;;;;;0.63;0.63;;;;;;;;;;4914236;28;20242;-87
2023/02/04 01:54:31;;;;;;;0.80;0.80;;;;;;;;;;4957898;28;20218;-85
2023/02/04 01:57:00;;;;;;;0.93;0.90;;;;;;;;;;4918647;29;20222;-86
2023/02/04 01:59:26;;;;;;;0.87;0.87;;;;;;;;;;4970555;28;20956;-86
2023/02/04 02:01:51;;;;;;;1.13;0.80;;;;;;;;;;4928386;28;20234;-87
2023/02/04 02:04:38;;;;;;;0.87;0.77;;;;;;;;;;4923639;28;20225;-87
2023/02/04 02:07:08;;;;;;;1.37;1.03;;;;;;;;;;4942163;28;20767;-86
2023/02/04 02:09:34;;;;;;;0.97;0.90;;;;;;;;;;4959167;28;20613;-87
2023/02/04 02:12:00;;;;;;;1.93;0.80;;;;;;;;;;4954180;28;20219;-87
2023/02/04 02:14:26;;;;;;;0.80;0.80;;;;;;;;;;4938879;28;20241;-86
2023/02/04 02:16:53;;;;;;;1.00;0.80;;;;;;;;;;4956814;28;20242;-86
2023/02/04 02:19:24;;;;;;;1.53;0.70;;;;;;;;;;4899370;28;20227;-88
2023/02/04 02:22:12;;;;;;;2.43;0.83;;;;;;;;;;4949568;28;20224;-87
2023/02/04 02:24:38;;;;;;;1.23;0.83;;;;;;;;;;4954714;28;20228;-88
2023/02/04 02:27:10;;;;;;;1.97;1.07;;;;;;;;;;4932918;28;20255;-89
2023/02/04 02:29:39;;;;;;;1.10;0.80;;;;;;;;;;4928016;29;20230;-87
2023/02/04 02:32:05;;;;;;;1.27;1.17;;;;;;;;;;4924579;28;20227;-88
2023/02/04 02:34:30;;;;;;;1.20;0.80;;;;;;;;;;4929623;29;20241;-89
2023/02/04 02:37:01;;;;;;;0.80;0.80;;;;;;;;;;4953154;28;20219;-87
2023/02/04 02:39:26;;;;;;;0.87;0.83;;;;;;;;;;4940863;28;20226;-88
2023/02/04 02:41:55;;;;;;;1.00;0.70;;;;;;;;;;4955330;28;20223;-88
2023/02/04 02:44:20;;;;;;;1.13;0.90;;;;;;;;;;4932227;28;20215;-87
2023/02/04 02:46:46;;;;;;;1.40;1.00;;;;;;;;;;4932886;28;20245;-89
2023/02/04 02:49:19;;;;;;;0.70;0.70;;;;;;;;;;4944409;28;20315;-88
2023/02/04 02:51:49;;;;;;;1.83;1.40;;;;;;;;;;4926057;29;20233;-87
2023/02/04 02:54:32;;;;;;;1.37;1.00;;;;;;;;;;4971489;28;20238;-89
2023/02/04 02:57:04;;;;;;;0.87;0.87;;;;;;;;;;4940755;28;20231;-87
2023/02/04 02:59:32;;;;;;;1.10;0.80;;;;;;;;;;4954495;28;20246;-87
2023/02/04 03:02:00;;;;;;;1.57;0.90;;;;;;;;;;4944207;28;20254;-87
2023/02/04 03:04:29;;;;;;;3.03;1.20;;;;;;;;;;4939219;28;20303;-87
2023/02/04 03:06:57;;;;;;;1.50;1.00;;;;;;;;;;4946039;28;20227;-89
2023/02/04 03:09:23;;;;;;;1.07;0.90;;;;;;;;;;4920377;28;20237;-87
2023/02/04 03:11:51;;;;;;;3.03;0.87;;;;;;;;;;4922068;29;20277;-88
2023/02/04 03:14:19;;;;;;;1.00;0.90;;;;;;;;;;4905302;28;20216;-87
2023/02/04 03:16:45;;;;;;;1.07;0.80;;;;;;;;;;4951779;28;20335;-88
2023/02/04 03:19:13;;;;;;;1.63;1.17;;;;;;;;;;4937748;28;20229;-88
2023/02/04 03:21:44;;;;;;;1.10;1.00;;;;;;;;;;4923815;29;20226;-87
2023/02/04 03:24:12;;;;;;;1.20;1.00;;;;;;;;;;4941267;28;20246;-88
2023/02/04 03:26:37;;;;;;;0.90;0.90;;;;;;;;;;4951042;28;20249;-88
2023/02/04 03:29:06;;;;;;;1.27;1.17;;;;;;;;;;4973125;28;20215;-87
2023/02/04 03:31:32;;;;;;;1.20;1.10;;;;;;;;;;4956798;28;20250;-88
2023/02/04 03:34:00;;;;;;;1.17;1.07;;;;;;;;;;4907038;29;20237;-87
2023/02/04 03:36:27;;;;;;;1.20;1.00;;;;;;;;;;4922681;28;20230;-88
2023/02/04 03:38:53;;;;;;;1.37;1.07;;;;;;;;;;4922678;29;20225;-86
2023/02/04 03:41:21;;;;;;;1.97;0.90;;;;;;;;;;4938412;28;20627;-86
2023/02/04 03:43:46;;;;;;;1.77;1.10;;;;;;;;;;4937444;29;20223;-87
2023/02/04 03:46:14;;;;;;;1.27;0.83;;;;;;;;;;4943948;28;20222;-87
2023/02/04 03:48:40;;;;;;;0.80;0.80;;;;;;;;;;4913899;29;20227;-88
2023/02/04 03:51:05;;;;;;;0.97;0.80;;;;;;;;;;4937170;28;20690;-87
2023/02/04 03:53:31;;;;;;;1.30;0.80;;;;;;;;;;4945788;28;20589;-86
2023/02/04 03:55:57;;;;;;;0.97;0.87;;;;;;;;;;4938150;28;20231;-87
2023/02/04 03:58:25;;;;;;;1.77;0.70;;;;;;;;;;4969878;28;20231;-88
2023/02/04 04:00:50;;;;;;;0.73;0.73;;;;;;;;;;4950467;28;20222;-87
2023/02/04 04:03:18;;;;;;;1.00;0.87;;;;;;;;;;4902370;28;20238;-88
2023/02/04 04:05:46;;;;;;;1.50;0.80;;;;;;;;;;4952388;28;20231;-88
2023/02/04 04:08:11;;;;;;;1.07;0.90;;;;;;;;;;4927999;28;20226;-87
2023/02/04 04:10:39;;;;;;;1.97;1.20;;;;;;;;;;4941655;28;20313;-87
2023/02/04 04:13:07;;;;;;;1.23;1.13;;;;;;;;;;4956819;28;20774;-88
2023/02/04 04:15:32;;;;;;;0.83;0.70;;;;;;;;;;4941728;29;20223;-87
2023/02/04 04:18:01;;;;;;;1.37;0.93;;;;;;;;;;4913858;29;20235;-87
2023/02/04 04:20:27;;;;;;;3.07;1.00;;;;;;;;;;4954413;28;20223;-86
2023/02/04 04:22:53;;;;;;;1.20;0.87;;;;;;;;;;4935173;28;20250;-87
2023/02/04 04:25:19;;;;;;;1.10;0.87;;;;;;;;;;4950209;28;20229;-88
2023/02/04 04:27:44;;;;;;;1.80;1.10;;;;;;;;;;4966288;28;20237;-88
2023/02/04 04:30:13;;;;;;;1.17;0.90;;;;;;;;;;4919995;28;20219;-88
2023/02/04 04:32:38;;;;;;;0.70;0.67;;;;;;;;;;4942207;28;20234;-88
2023/02/04 04:35:06;;;;;;;1.63;0.80;;;;;;;;;;4924164;28;20286;-86
2023/02/04 04:37:34;;;;;;;0.70;0.70;;;;;;;;;;4952298;28;20242;-86
2023/02/04 04:40:00;;;;;;;0.80;0.80;;;;;;;;;;4928212;29;20219;-88
2023/02/04 04:42:26;;;;;;;1.40;0.90;;;;;;;;;;4949945;28;21488;-88
2023/02/04 04:44:51;;;;;;;1.07;0.80;;;;;;;;;;4953292;28;20234;-86
2023/02/04 04:47:17;;;;;;;1.17;0.90;;;;;;;;;;4954016;28;20588;-88
2023/02/04 04:49:42;;;;;;;2.77;1.20;;;;;;;;;;4966435;28;20711;-88
2023/02/04 04:52:09;;;;;;;1.43;1.17;;;;;;;;;;4898734;28;20651;-86
2023/02/04 04:54:35;;;;;;;1.43;0.90;;;;;;;;;;4921318;29;20250;-86
2023/02/04 04:57:00;;;;;;;1.13;1.10;;;;;;;;;;4923442;29;20223;-87
2023/02/04 04:59:29;;;;;;;2.13;1.27;;;;;;;;;;4918795;28;20612;-86
2023/02/04 05:01:54;;;;;;;1.27;1.00;;;;;;;;;;4954449;28;20234;-87
2023/02/04 05:04:23;;;;;;;1.27;1.17;;;;;;;;;;4948467;28;21193;-88
2023/02/04 05:06:48;;;;;;;1.57;1.07;;;;;;;;;;4952378;28;20613;-87
2023/02/04 05:09:17;;;;;;;1.60;1.30;;;;;;;;;;4926162;28;20215;-88
2023/02/04 05:11:46;;;;;;;1.27;1.13;;;;;;;;;;4931117;28;20330;-88
2023/02/04 05:14:12;;;;;;;1.17;1.17;;;;;;;;;;4924591;28;20246;-87
2023/02/04 05:16:39;;;;;;;1.97;1.20;;;;;;;;;;4953271;28;20239;-86
2023/02/04 05:19:07;;;;;;;1.50;1.40;;;;;;;;;;4922690;28;20227;-85
2023/02/04 05:21:33;;;;;;;1.93;1.73;;;;;;;;;;4926649;29;20227;-87
2023/02/04 05:23:59;;;;;;;1.77;1.23;;;;;;;;;;4956709;28;20722;-87
2023/02/04 05:26:25;;;;;;;2.00;1.50;;;;;;;;;;4925522;28;20235;-87
2023/02/04 05:28:51;;;;;;;2.50;1.53;;;;;;;;;;4941541;28;20222;-87
2023/02/04 05:31:17;;;;;;;2.03;1.37;;;;;;;;;;4900981;28;20234;-86
2023/02/04 05:33:44;;;;;;;2.70;1.70;;;;;;;;;;4950997;28;20310;-86
2023/02/04 05:36:13;;;;;;;1.53;1.40;;;;;;;;;;4939787;28;20315;-86
2023/02/04 05:38:38;;;;;;;1.30;1.20;;;;;;;;;;4968886;28;20699;-86
2023/02/04 05:41:04;;;;;;;1.83;1.40;;;;;;;;;;4911495;28;20226;-86
2023/02/04 05:43:32;;;;;;;1.73;1.37;;;;;;;;;;4951198;28;20227;-86
2023/02/04 05:46:02;;;;;;;1.93;1.40;;;;;;;;;;4923796;29;20238;-87
2023/02/04 05:48:28;;;;;;;4.03;1.47;;;;;;;;;;4949014;28;20223;-86
2023/02/04 05:50:57;;;;;;;2.40;1.37;;;;;;;;;;4951809;28;20267;-86
2023/02/04 05:53:23;;;;;;;1.87;1.40;;;;;;;;;;4914347;28;20322;-86
2023/02/04 05:55:51;;;;;;;4.20;1.80;;;;;;;;;;4923879;29;20231;-87
2023/02/04 05:58:19;;;;;;;1.40;1.30;;;;;;;;;;4949970;28;20230;-86
2023/02/04 06:00:49;;;;;;;1.73;1.30;;;;;;;;;;4956938;28;20219;-87
2023/02/04 06:03:18;;;;;;;1.33;1.23;;;;;;;;;;4923795;28;20219;-86
2023/02/04 06:05:46;;;;;;;1.97;1.47;;;;;;;;;;4909177;29;20586;-87
2023/02/04 06:08:11;;;;;;;1.00;1.00;;;;;;;;;;4906945;28;20226;-86
2023/02/04 06:10:41;;;;;;;1.57;1.30;;;;;;;;;;4950412;28;20247;-86
2023/02/04 06:13:09;;;;;;;1.33;1.13;;;;;;;;;;4924383;28;20664;-87
2023/02/04 06:15:35;;;;;;;1.33;1.23;;;;;;;;;;4940693;28;20249;-85
2023/02/04 06:18:00;;;;;;;1.53;1.43;;;;;;;;;;4926132;29;20246;-86
2023/02/04 06:20:26;;;;;;;2.17;1.40;;;;;;;;;;4924939;28;20218;-86
2023/02/04 06:22:53;;;;;;;1.33;1.23;;;;;;;;;;4908295;29;20234;-85
2023/02/04 06:25:21;;;;;;;1.50;1.07;;;;;;;;;;4945956;28;20314;-86
2023/02/04 06:27:54;;;;;;;2.27;1.60;;;;;;;;;;4954798;28;20227;-86
2023/02/04 06:30:19;;;;;;;2.50;1.40;;;;;;;;;;4918071;28;20821;-87
2023/02/04 06:32:49;;;;;;;3.97;1.60;;;;;;;;;;4955759;28;20225;-86
2023/02/04 06:35:18;;;;;;;2.83;1.73;;;;;;;;;;4931577;28;20221;-85
2023/02/04 06:37:43;;;;;;;2.57;1.60;;;;;;;;;;4940689;28;20235;-86
2023/02/04 06:40:10;;;;;;;1.60;1.50;;;;;;;;;;4933932;28;20231;-87
2023/02/04 06:42:35;;;;;;;1.97;1.23;;;;;;;;;;4949806;28;20596;-86
2023/02/04 06:45:02;;;;;;;1.90;1.77;;;;;;;;;;4947790;28;20254;-85
2023/02/04 06:47:30;;;;;;;2.63;1.40;;;;;;;;;;4929828;29;20246;-86
2023/02/04 06:50:00;;;;;;;5.40;1.37;;;;;;;;;;4949793;28;20227;-85
2023/02/04 06:52:25;;;;;;;1.47;1.30;;;;;;;;;;4944611;28;20223;-85
2023/02/04 06:54:51;;;;;;;2.77;2.03;;;;;;;;;;4967013;28;20233;-85
2023/02/04 06:57:18;;;;;;;1.63;1.53;;;;;;;;;;4912473;28;20238;-86
2023/02/04 06:59:45;;;;;;;2.30;1.87;;;;;;;;;;4918974;29;20233;-86
2023/02/04 07:02:14;;;;;;;2.13;1.27;;;;;;;;;;4924776;28;20210;-86
2023/02/04 07:04:42;;;;;;;2.03;1.90;;;;;;;;;;4924837;28;20422;-86
2023/02/04 07:07:09;;;;;;;2.20;1.93;;;;;;;;;;4905012;28;20227;-86
2023/02/04 07:09:41;;;;;;;2.87;1.80;;;;;;;;;;4951512;28;20288;-85
2023/02/04 07:12:07;;;;;;;1.90;1.70;;;;;;;;;;4950510;28;20214;-86
2023/02/04 07:14:33;;;;;;;2.80;1.90;;;;;;;;;;4911225;29;20222;-86
2023/02/04 07:17:01;;;;;;;2.07;1.97;;;;;;;;;;4927027;28;20347;-87
2023/02/04 07:19:26;;;;;;;2.13;2.03;;;;;;;;;;4921066;28;20220;-87
2023/02/04 07:21:55;;;;;;;3.93;2.10;;;;;;;;;;4939472;28;20770;-87
2023/02/04 07:24:24;;;;;;;2.53;2.00;;;;;;;;;;4929631;28;20208;-87
2023/02/04 07:26:54;;;;;;;1.50;1.40;;;;;;;;;;4940099;28;20581;-86
2023/02/04 07:29:20;;;;;;;3.17;1.87;;;;;;;;;;4930274;28;20242;-85
2023/02/04 07:31:50;;;;;;;2.27;2.00;;;;;;;;;;4936417;28;20222;-86
2023/02/04 07:34:20;;;;;;;2.80;2.23;;;;;;;;;;4926406;28;20218;-86
2023/02/04 07:36:45;;;;;;;2.13;2.03;;;;;;;;;;4906578;29;20245;-87
2023/02/04 07:39:13;;;;;;;2.93;2.73;;;;;;;;;;4956308;28;20223;-88
2023/02/04 07:41:38;;;;;;;2.80;2.60;;;;;;;;;;4923125;29;20555;-86
2023/02/04 07:44:04;;;;;;;3.03;2.50;;;;;;;;;;4938251;28;20234;-87
2023/02/04 07:46:34;;;;;;;5.50;4.83;;;;;;;;;;4942417;28;20322;-86
2023/02/04 07:49:02;;;;;;;2.80;2.53;;;;;;;;;;4940943;29;20206;-85
2023/02/04 07:51:30;;;;;;;3.00;2.70;;;;;;;;;;4944778;29;20245;-85
2023/02/04 07:53:55;;;;;;;3.90;3.60;;;;;;;;;;4933132;29;20230;-85
2023/02/04 07:56:28;;;;;;;2.30;2.10;;;;;;;;;;4947695;28;20230;-86
2023/02/04 07:58:54;;;;;;;3.27;1.70;;;;;;;;;;4955545;28;20275;-85
2023/02/04 08:01:20;;;;;;;1.40;1.30;;;;;;;;;;4967151;28;20223;-87
2023/02/04 08:03:47;;;;;;;1.00;0.90;;;;;;;;;;4928164;29;20224;-86
2023/02/04 08:06:15;;;;;;;2.00;1.20;;;;;;;;;;4929450;28;20222;-86
2023/02/04 08:08:41;;;;;;;1.30;1.20;;;;;;;;;;4935375;29;20250;-86
2023/02/04 08:11:07;;;;;;;2.30;1.50;;;;;;;;;;4931791;28;20519;-87
2023/02/04 08:13:37;;;;;;;1.80;1.20;;;;;;;;;;4960786;28;20586;-87
2023/02/04 08:16:03;;;;;;;1.40;1.30;;;;;;;;;;4941459;28;20759;-85
2023/02/04 08:18:29;;;;;;;8.37;7.20;;;;;;;;;;4942314;28;20218;-86
2023/02/04 08:20:58;;;;;;;6.13;5.57;;;;;;;;;;4911014;29;20219;-85
2023/02/04 08:23:25;;;;;;;4.53;2.73;;;;;;;;;;4914981;28;20219;-86
2023/02/04 08:25:51;;;;;;;2.70;1.43;;;;;;;;;;4941963;28;20267;-88
2023/02/04 08:28:17;;;;;;;2.70;1.10;;;;;;;;;;4915556;28;20596;-86
2023/02/04 08:30:45;;;;;;;1.47;1.37;;;;;;;;;;4962345;28;20328;-86
2023/02/04 08:33:12;;;;;;;1.47;1.20;;;;;;;;;;4943312;28;20230;-87
2023/02/04 08:35:38;;;;;;;1.43;1.23;;;;;;;;;;4953999;28;20242;-85
2023/02/04 08:38:04;;;;;;;1.67;1.30;;;;;;;;;;4952108;28;20234;-86
2023/02/04 08:40:32;;;;;;;1.40;1.30;;;;;;;;;;4952465;28;20657;-86
2023/02/04 08:42:57;;;;;;;1.63;1.37;;;;;;;;;;4951376;28;20223;-85
2023/02/04 08:45:27;;;;;;;1.63;1.53;;;;;;;;;;4905193;28;20235;-84
2023/02/04 08:47:53;;;;;;;1.50;1.40;;;;;;;;;;4940506;28;20230;-87
2023/02/04 08:50:18;;;;;;;4.37;1.70;;;;;;;;;;4922649;28;20219;-86
2023/02/04 08:52:46;;;;;;;1.93;1.57;;;;;;;;;;4943481;28;20283;-85
2023/02/04 08:55:11;;;;;;;1.60;1.43;;;;;;;;;;4914467;28;20258;-87
2023/02/04 08:57:37;;;;;;;1.63;1.30;;;;;;;;;;4939091;28;20247;-86
2023/02/04 09:00:03;;;;;;;1.57;1.20;;;;;;;;;;4923256;28;20265;-85
2023/02/04 09:02:29;;;;;;;3.17;1.20;;;;;;;;;;4920968;29;20312;-87
2023/02/04 09:04:55;;;;;;;1.90;1.70;;;;;;;;;;4926330;28;20207;-86
2023/02/04 09:07:22;;;;;;;5.10;1.43;;;;;;;;;;4958482;28;20245;-88
2023/02/04 09:09:50;;;;;;;2.80;1.33;;;;;;;;;;4934767;29;20227;-87
2023/02/04 09:12:19;;;;;;;1.30;1.20;;;;;;;;;;4939869;28;20214;-87
2023/02/04 09:14:44;;;;;;;1.00;0.93;;;;;;;;;;4925987;28;20231;-84
2023/02/04 09:17:10;;;;;;;1.40;1.20;;;;;;;;;;4937375;28;20290;-88
2023/02/04 09:19:35;;;;;;;1.07;1.03;;;;;;;;;;4922396;29;20223;-87
2023/02/04 09:22:03;;;;;;;1.20;1.10;;;;;;;;;;4942832;28;20221;-88
2023/02/04 09:24:29;;;;;;;1.10;1.00;;;;;;;;;;4944267;28;20684;-87
2023/02/04 09:26:56;;;;;;;1.07;1.00;;;;;;;;;;4919665;29;20305;-88
2023/02/04 09:29:22;;;;;;;0.80;0.80;;;;;;;;;;4921507;28;20227;-87
2023/02/04 09:31:48;;;;;;;0.90;0.90;;;;;;;;;;4942132;28;20223;-88
2023/02/04 09:34:13;;;;;;;1.13;1.00;;;;;;;;;;4952617;28;20222;-87
2023/02/04 09:36:39;;;;;;;3.57;1.10;;;;;;;;;;4922196;29;20916;-87
2023/02/04 09:39:10;;;;;;;1.30;0.90;;;;;;;;;;4927944;28;20353;-81
2023/02/04 09:41:37;;;;;;;1.57;1.17;;;;;;;;;;4941565;28;20239;-83
2023/02/04 09:44:03;;;;;;;1.00;0.90;;;;;;;;;;4942474;28;20219;-83
2023/02/04 09:46:31;;;;;;;3.90;1.40;;;;;;;;;;4966676;28;20287;-83
2023/02/04 09:48:57;;;;;;;1.40;1.00;;;;;;;;;;4970718;28;20270;-83
2023/02/04 09:51:26;;;;;;;1.37;0.87;;;;;;;;;;4951316;28;20219;-83
2023/02/04 09:53:52;;;;;;;0.90;0.67;;;;;;;;;;4939699;28;20247;-82
2023/02/04 09:56:18;;;;;;;1.40;1.30;;;;;;;;;;4947887;28;20291;-81
2023/02/04 09:58:46;;;;;;;0.80;0.80;;;;;;;;;;4968006;28;20222;-81
2023/02/04 10:01:16;;;;;;;0.60;0.60;;;;;;;;;;4951407;28;20222;-82
2023/02/04 10:03:45;;;;;;;3.63;0.90;;;;;;;;;;4957182;28;20231;-83
2023/02/04 10:06:18;;;;;;;1.07;0.80;;;;;;;;;;4939230;28;20250;-81
2023/02/04 10:08:47;;;;;;;1.67;0.83;;;;;;;;;;4927810;29;20262;-83
2023/02/04 10:11:13;;;;;;;0.67;0.67;;;;;;;;;;4942285;28;20214;-82
2023/02/04 10:13:49;;;;;;;1.07;0.60;;;;;;;;;;4953094;28;20298;-83
2023/02/04 10:16:20;;;;;;;0.87;0.80;;;;;;;;;;4921686;28;20222;-82
2023/02/04 10:18:48;;;;;;;0.77;0.77;;;;;;;;;;4966510;28;20289;-82
2023/02/04 10:21:17;;;;;;;1.03;0.70;;;;;;;;;;4933695;28;20223;-81
2023/02/04 10:23:44;;;;;;;1.03;0.60;;;;;;;;;;4944595;28;20223;-82
2023/02/04 10:26:11;;;;;;;1.33;1.00;;;;;;;;;;4921351;28;20631;-83
2023/02/04 10:28:39;;;;;;;1.30;0.80;;;;;;;;;;4939054;28;20230;-83
2023/02/04 10:31:08;;;;;;;1.83;1.73;;;;;;;;;;4952833;28;20311;-83
2023/02/04 10:33:36;;;;;;;0.97;0.80;;;;;;;;;;4966676;28;20230;-82
2023/02/04 10:36:02;;;;;;;1.47;0.60;;;;;;;;;;4958148;28;20261;-82
2023/02/04 10:38:28;;;;;;;1.47;0.87;;;;;;;;;;4927608;29;20234;-83
2023/02/04 10:41:01;;;;;;;0.50;0.50;;;;;;;;;;4958223;28;20238;-82
2023/02/04 10:43:26;;;;;;;1.00;1.00;;;;;;;;;;4958777;28;20589;-81
2023/02/04 10:46:03;;;;;;;1.60;1.50;;;;;;;;;;4920566;28;20223;-81
2023/02/04 10:48:29;;;;;;;5.17;4.77;;;;;;;;;;4955650;28;20264;-81
2023/02/04 10:50:55;;;;;;;2.00;1.80;;;;;;;;;;4971611;28;20258;-81
2023/02/04 10:56:13;;;;;;;1.50;1.40;;;;;;;;;;4942005;28;20222;-82
2023/02/04 10:58:38;;;;;;;0.73;0.73;;;;;;;;;;4950807;28;20239;-81
2023/02/04 11:01:12;;;;;;;0.77;0.77;;;;;;;;;;4939401;28;20231;-83
2023/02/04 11:03:38;;;;;;;1.83;0.80;;;;;;;;;;4955597;28;20716;-82
2023/02/04 11:06:10;;;;;;;1.17;0.70;;;;;;;;;;4937689;28;20226;-83
2023/02/04 11:08:36;;;;;;;0.80;0.77;;;;;;;;;;4939220;28;20318;-82
2023/02/04 11:11:07;;;;;;;1.57;1.47;;;;;;;;;;4923837;29;20241;-85
2023/02/04 11:13:48;;;;;;;1.37;0.60;;;;;;;;;;4946340;28;20719;-82
2023/02/04 11:16:16;;;;;;;1.17;0.80;;;;;;;;;;4954395;28;20231;-85
2023/02/04 11:19:00;;;;;;;0.83;0.40;;;;;;;;;;4953946;28;20237;-84
2023/02/04 11:21:33;;;;;;;1.53;1.07;;;;;;;;;;4941721;28;20226;-83
2023/02/04 11:24:12;;;;;;;1.07;0.60;;;;;;;;;;4966076;28;20223;-85
2023/02/04 11:26:44;;;;;;;0.70;0.70;;;;;;;;;;4965788;28;20235;-84
2023/02/04 11:29:25;;;;;;;0.67;0.60;;;;;;;;;;4965402;28;20223;-84
2023/02/04 11:31:50;;;;;;;0.63;0.50;;;;;;;;;;4916771;28;20226;-84
2023/02/04 11:34:18;;;;;;;0.90;0.50;;;;;;;;;;4968825;28;20219;-83
2023/02/04 11:37:07;;;;;;;1.90;0.80;;;;;;;;;;4966294;28;20230;-84
2023/02/04 11:39:41;;;;;;;0.63;0.60;;;;;;;;;;4948614;28;20231;-83
2023/02/04 11:42:40;;;;;;;0.47;0.47;;;;;;;;;;4938741;28;20238;-83
2023/02/04 11:45:24;;;;;;;1.23;0.70;;;;;;;;;;4966557;28;20249;-84
2023/02/04 11:47:50;;;;;;;0.60;0.60;;;;;;;;;;4925566;29;20235;-82
2023/02/04 11:50:21;;;;;;;1.67;0.70;;;;;;;;;;4955316;28;20221;-83
2023/02/04 11:52:46;;;;;;;0.63;0.60;;;;;;;;;;4935111;28;20231;-81
2023/02/04 11:55:12;;;;;;;1.07;0.70;;;;;;;;;;4955998;28;20295;-82
2023/02/04 11:57:41;;;;;;;1.33;0.67;;;;;;;;;;4950560;28;20270;-83
2023/02/04 12:00:33;;;;;;;2.50;0.67;;;;;;;;;;4945804;28;20218;-83
2023/02/04 12:03:00;;;;;;;2.37;0.63;;;;;;;;;;4971371;28;20560;-83
2023/02/04 12:05:40;;;;;;;0.70;0.50;;;;;;;;;;4963165;28;20234;-82
2023/02/04 12:08:12;;;;;;;0.90;0.60;;;;;;;;;;4936016;28;20231;-84
2023/02/04 12:10:38;;;;;;;0.80;0.70;;;;;;;;;;4958619;28;20247;-84
2023/02/04 12:13:17;;;;;;;1.63;0.70;;;;;;;;;;4956516;28;20223;-87
2023/02/04 13:24:34;;;;;;;0.70;0.70;;;;;;;;;;4948759;28;20217;-86
2023/02/04 13:27:02;;;;;;;0.70;0.60;;;;;;;;;;4933529;28;20235;-88
2023/02/04 13:29:31;;;;;;;0.90;0.80;;;;;;;;;;4934411;29;20222;-87
2023/02/04 13:31:56;;;;;;;1.07;0.60;;;;;;;;;;4935583;28;20230;-87
2023/02/04 13:34:22;;;;;;;0.70;0.70;;;;;;;;;;4963677;28;20233;-86
2023/02/04 13:36:47;;;;;;;1.20;0.70;;;;;;;;;;4941897;28;20346;-87
2023/02/04 13:39:15;;;;;;;1.03;0.60;;;;;;;;;;4958010;28;20225;-87
2023/02/04 13:41:41;;;;;;;0.83;0.60;;;;;;;;;;4933147;28;20263;-85
2023/02/04 13:44:06;;;;;;;0.93;0.60;;;;;;;;;;4946932;28;20238;-87
2023/02/04 13:46:32;;;;;;;0.73;0.70;;;;;;;;;;4958801;28;20242;-88
2023/02/04 13:48:58;;;;;;;0.60;0.50;;;;;;;;;;4959004;28;20215;-87
2023/02/04 13:51:26;;;;;;;1.47;0.70;;;;;;;;;;4960256;28;20298;-86
2023/02/04 13:53:52;;;;;;;0.50;0.40;;;;;;;;;;4946719;28;20839;-87
2023/02/04 13:56:19;;;;;;;1.63;0.60;;;;;;;;;;4909018;28;20321;-86
2023/02/04 13:58:47;;;;;;;0.47;0.47;;;;;;;;;;4956340;28;20300;-87
2023/02/04 14:01:13;;;;;;;1.50;0.70;;;;;;;;;;4945725;28;20255;-86
2023/02/04 14:03:38;;;;;;;0.80;0.60;;;;;;;;;;4929510;28;20211;-88
2023/02/04 14:06:06;;;;;;;0.60;0.60;;;;;;;;;;4945975;28;20211;-88
2023/02/04 14:08:32;;;;;;;0.67;0.53;;;;;;;;;;4931285;29;20232;-87
2023/02/04 14:10:57;;;;;;;0.90;0.60;;;;;;;;;;4958000;28;20294;-86
2023/02/04 14:13:25;;;;;;;0.47;0.47;;;;;;;;;;4973925;28;20267;-86
2023/02/04 14:15:51;;;;;;;1.23;0.60;;;;;;;;;;4958251;28;20207;-86
2023/02/04 14:18:19;;;;;;;0.70;0.70;;;;;;;;;;4953824;28;20646;-87
2023/02/04 14:20:47;;;;;;;0.80;0.53;;;;;;;;;;4961027;28;20245;-86
2023/02/04 14:23:15;;;;;;;1.90;0.77;;;;;;;;;;4962110;28;20211;-86
2023/02/04 14:25:43;;;;;;;0.90;0.90;;;;;;;;;;4960436;28;20266;-83
2023/02/04 14:28:09;;;;;;;1.43;0.70;;;;;;;;;;4973521;28;20223;-84
2023/02/04 14:30:36;;;;;;;2.50;0.80;;;;;;;;;;4953885;28;20238;-84
2023/02/04 14:33:02;;;;;;;0.80;0.80;;;;;;;;;;4957107;28;20215;-83
2023/02/04 14:35:28;;;;;;;1.00;0.63;;;;;;;;;;4951618;28;20310;-83
2023/02/04 14:37:53;;;;;;;1.03;0.90;;;;;;;;;;4957617;28;20233;-83
2023/02/04 14:40:21;;;;;;;0.90;0.63;;;;;;;;;;4952793;28;20222;-82
2023/02/04 14:42:46;;;;;;;0.70;0.70;;;;;;;;;;4974543;28;20231;-84
2023/02/04 14:45:15;;;;;;;0.60;0.60;;;;;;;;;;4953647;28;20609;-83
2023/02/04 14:47:48;;;;;;;1.10;0.60;;;;;;;;;;4950568;28;20226;-83
2023/02/04 14:50:14;;;;;;;0.77;0.60;;;;;;;;;;4950101;28;20227;-82
2023/02/04 14:52:40;;;;;;;0.80;0.60;;;;;;;;;;4941825;28;20230;-83
2023/02/04 14:55:07;;;;;;;0.60;0.60;;;;;;;;;;4956013;28;20222;-83
2023/02/04 14:57:35;;;;;;;0.77;0.60;;;;;;;;;;4956904;28;20239;-83
2023/02/04 15:00:02;;;;;;;0.90;0.60;;;;;;;;;;4955317;28;20227;-83
2023/02/04 15:02:27;;;;;;;0.67;0.60;;;;;;;;;;4935410;28;20321;-83
2023/02/04 15:04:55;;;;;;;0.87;0.60;;;;;;;;;;4937662;28;20226;-81
2023/02/04 15:07:21;;;;;;;2.57;0.50;;;;;;;;;;4939861;28;20270;-83
2023/02/04 15:09:49;;;;;;;0.40;0.40;;;;;;;;;;4953623;28;20223;-83
2023/02/04 15:12:18;;;;;;;1.73;0.83;;;;;;;;;;4934015;28;20226;-83
2023/02/04 15:14:48;;;;;;;0.60;0.60;;;;;;;;;;4964670;28;20234;-83
2023/02/04 15:17:14;;;;;;;0.60;0.60;;;;;;;;;;4952918;28;20230;-81
2023/02/04 15:19:42;;;;;;;1.80;0.80;;;;;;;;;;4964454;28;20290;-83
2023/02/04 15:22:08;;;;;;;0.83;0.60;;;;;;;;;;4937812;28;20637;-83
2023/02/04 15:24:33;;;;;;;1.30;0.80;;;;;;;;;;4952855;28;20348;-84
2023/02/04 15:26:59;;;;;;;0.43;0.40;;;;;;;;;;4966214;28;20306;-83
2023/02/04 15:29:27;;;;;;;0.50;0.50;;;;;;;;;;4947529;28;20222;-82
2023/02/04 15:31:55;;;;;;;0.60;0.60;;;;;;;;;;4952157;28;20697;-82
2023/02/04 15:34:21;;;;;;;3.70;0.70;;;;;;;;;;4950484;28;20215;-84
2023/02/04 15:36:46;;;;;;;0.50;0.50;;;;;;;;;;4949231;28;20267;-83
2023/02/04 15:39:16;;;;;;;2.83;0.80;;;;;;;;;;4940438;28;20226;-82
2023/02/04 15:41:42;;;;;;;3.73;1.30;;;;;;;;;;4946498;28;20234;-83
2023/02/04 15:44:07;;;;;;;1.87;1.77;;;;;;;;;;4958224;28;20215;-83
2023/02/04 15:46:33;;;;;;;2.23;1.80;;;;;;;;;;4968985;28;20275;-81
2023/02/04 15:48:59;;;;;;;2.27;1.80;;;;;;;;;;4953901;28;20219;-82
2023/02/04 15:51:25;;;;;;;3.10;2.80;;;;;;;;;;4939812;28;20672;-82
2023/02/04 15:53:51;;;;;;;3.97;3.20;;;;;;;;;;4981662;28;20249;-82
2023/02/04 15:56:16;;;;;;;2.70;2.50;;;;;;;;;;4958235;28;20219;-82
2023/02/04 15:58:42;;;;;;;3.00;2.70;;;;;;;;;;4941752;28;20286;-82